Time;durP1;ratioP1;P1;durP2;ratioP2;P2;SDS_P1;SDS_P2;PMS_P1;PMS_P2;Temp;Humidity;BMP_temperature;BMP_pressure;BME280_temperature;BME280_humidity;BME280_pressure;Samples;Min_cycle;Max_cycle;Signal;HPM_P1;HPM_P2
2021/11/20 00:00:42;;;;;;;;;;;;;;;;;;4901004;29;19923;-79
2021/11/20 00:03:08;;;;;;;;;;;;;;;;;;4900656;29;19923;-80
2021/11/20 00:05:37;;;;;;;;;;;;;;;;;;4899188;29;19979;-79
2021/11/20 00:08:05;;;;;;;;;;;;;;;;;;4900651;29;19924;-79
2021/11/20 00:10:31;;;;;;;;;;;;;;;;;;4899479;29;20006;-80
2021/11/20 00:12:57;;;;;;;;;;;;;;;;;;4900959;29;19930;-80
2021/11/20 00:15:28;;;;;;;;;;;;;;;;;;4900609;29;19923;-81
2021/11/20 00:17:54;;;;;;;;;;;;;;;;;;4900613;29;20402;-80
2021/11/20 00:20:20;;;;;;;;;;;;;;;;;;4900681;29;19920;-80
2021/11/20 00:22:46;;;;;;;;;;;;;;;;;;4900585;29;19923;-80
2021/11/20 00:25:21;;;;;;;;;;;;;;;;;;4899323;29;19919;-80
2021/11/20 00:27:47;;;;;;;;;;;;;;;;;;4900768;29;20008;-80
2021/11/20 00:30:22;;;;;;;;;;;;;;;;;;4900470;29;20397;-81
2021/11/20 00:32:59;;;;;;;;;;;;;;;;;;4900378;29;19987;-80
2021/11/20 00:35:26;;;;;;;;;;;;;;;;;;4899147;29;19923;-80
2021/11/20 00:37:51;;;;;;;;;;;;;;;;;;4900321;29;19919;-80
2021/11/20 00:40:21;;;;;;;;;;;;;;;;;;4900241;29;20370;-80
2021/11/20 00:42:47;;;;;;;;;;;;;;;;;;4898812;29;19923;-80
2021/11/20 00:45:12;;;;;;;;;;;;;;;;;;4899022;29;19949;-80
2021/11/20 00:47:37;;;;;;;;;;;;;;;;;;4898890;29;19923;-80
2021/11/20 00:50:04;;;;;;;;;;;;;;;;;;4898858;29;19919;-80
2021/11/20 00:52:30;;;;;;;;;;;;;;;;;;4900262;29;19959;-80
2021/11/20 00:54:55;;;;;;;;;;;;;;;;;;4899085;29;20336;-80
2021/11/20 00:57:20;;;;;;;;;;;;;;;;;;4898716;29;20399;-80
2021/11/20 00:59:46;;;;;;;;;;;;;;;;;;4899790;29;20364;-80
2021/11/20 01:02:11;;;;;;;;;;;;;;;;;;4899738;29;19919;-80
2021/11/20 01:04:38;;;;;;;;;;;;;;;;;;4898382;29;19948;-80
2021/11/20 01:07:04;;;;;;;;;;;;;;;;;;4899822;29;19920;-80
2021/11/20 01:09:31;;;;;;;;;;;;;;;;;;4899663;29;20376;-80
2021/11/20 01:11:59;;;;;;;;;;;;;;;;;;4899593;29;19927;-81
2021/11/20 01:14:25;;;;;;;;;;;;;;;;;;4899555;29;19966;-81
2021/11/20 01:16:51;;;;;;;;;;;;;;;;;;4898259;29;19926;-81
2021/11/20 01:19:17;;;;;;;;;;;;;;;;;;4899291;29;19934;-82
2021/11/20 01:21:43;;;;;;;;;;;;;;;;;;4899457;29;19924;-81
2021/11/20 01:24:09;;;;;;;;;;;;;;;;;;4899439;29;19927;-80
2021/11/20 01:26:35;;;;;;;;;;;;;;;;;;4899430;29;20034;-81
2021/11/20 01:29:01;;;;;;;;;;;;;;;;;;4899225;29;19926;-81
2021/11/20 01:31:28;;;;;;;;;;;;;;;;;;4899157;29;19923;-81
2021/11/20 01:33:54;;;;;;;;;;;;;;;;;;4899185;29;19923;-81
2021/11/20 01:36:22;;;;;;;;;;;;;;;;;;4899078;29;19926;-81
2021/11/20 01:38:48;;;;;;;;;;;;;;;;;;4899067;29;19927;-81
2021/11/20 01:41:14;;;;;;;;;;;;;;;;;;4897828;29;19978;-81
2021/11/20 01:43:40;;;;;;;;;;;;;;;;;;4898853;29;19923;-81
2021/11/20 01:46:14;;;;;;;;;;;;;;;;;;4897761;29;19920;-81
2021/11/20 01:48:45;;;;;;;;;;;;;;;;;;4898880;29;19951;-81
2021/11/20 01:51:25;;;;;;;;;;;;;;;;;;4898905;29;19919;-81
2021/11/20 01:54:04;;;;;;;;;;;;;;;;;;4898812;29;19920;-81
2021/11/20 01:56:41;;;;;;;;;;;;;;;;;;4898948;29;19923;-81
2021/11/20 01:59:27;;;;;;;;;;;;;;;;;;4899022;29;19955;-81
2021/11/20 02:02:03;;;;;;;;;;;;;;;;;;4872060;29;19919;-81
2021/11/20 02:04:33;;;;;;;;;;;;;;;;;;4881583;29;20125;-81
2021/11/20 02:07:27;;;;;;;;;;;;;;;;;;4898424;29;19926;-81
2021/11/20 02:10:11;;;;;;;;;;;;;;;;;;4896523;29;19919;-81
2021/11/20 02:12:39;;;;;;;;;;;;;;;;;;4898664;29;19924;-80
2021/11/20 02:15:07;;;;;;;;;;;;;;;;;;4898444;29;20086;-81
2021/11/20 02:17:34;;;;;;;;;;;;;;;;;;4898422;29;19926;-81
2021/11/20 02:20:04;;;;;;;;;;;;;;;;;;4898393;29;19920;-81
2021/11/20 02:22:34;;;;;;;;;;;;;;;;;;4881557;29;20026;-81
2021/11/20 02:25:00;;;;;;;;;;;;;;;;;;4898399;29;19926;-81
2021/11/20 02:27:25;;;;;;;;;;;;;;;;;;4898308;29;19916;-81
2021/11/20 02:30:09;;;;;;;;;;;;;;;;;;4897032;29;19930;-81
2021/11/20 02:32:35;;;;;;;;;;;;;;;;;;4898253;29;19951;-81
2021/11/20 02:35:00;;;;;;;;;;;;;;;;;;4898549;29;20025;-81
2021/11/20 02:37:26;;;;;;;;;;;;;;;;;;4897296;29;20014;-81
2021/11/20 02:39:51;;;;;;;;;;;;;;;;;;4898229;29;19930;-81
2021/11/20 02:42:19;;;;;;;;;;;;;;;;;;4898101;29;19923;-81
2021/11/20 02:44:45;;;;;;;;;;;;;;;;;;4881286;29;19927;-81
2021/11/20 02:47:24;;;;;;;;;;;;;;;;;;4898402;29;19968;-81
2021/11/20 02:49:51;;;;;;;;;;;;;;;;;;4896743;29;19920;-81
2021/11/20 02:52:17;;;;;;;;;;;;;;;;;;4898200;29;20261;-81
2021/11/20 02:54:43;;;;;;;;;;;;;;;;;;4896674;29;19930;-81
2021/11/20 02:57:13;;;;;;;;;;;;;;;;;;4898054;29;19927;-81
2021/11/20 02:59:39;;;;;;;;;;;;;;;;;;4897933;29;20021;-81
2021/11/20 03:02:04;;;;;;;;;;;;;;;;;;4898096;29;19920;-81
2021/11/20 03:04:30;;;;;;;;;;;;;;;;;;4897741;29;19924;-82
2021/11/20 03:06:58;;;;;;;;;;;;;;;;;;4898013;29;19920;-81
2021/11/20 03:09:25;;;;;;;;;;;;;;;;;;4897991;29;20060;-81
2021/11/20 03:11:51;;;;;;;;;;;;;;;;;;4896740;29;19972;-80
2021/11/20 03:14:17;;;;;;;;;;;;;;;;;;4897954;29;20031;-81
2021/11/20 03:16:48;;;;;;;;;;;;;;;;;;4898062;29;19927;-81
2021/11/20 03:19:13;;;;;;;;;;;;;;;;;;4899901;29;20379;-81
2021/11/20 03:21:41;;;;;;;;;;;;;;;;;;4901587;29;19919;-82
2021/11/20 03:24:07;;;;;;;;;;;;;;;;;;4901832;29;19946;-81
2021/11/20 03:26:33;;;;;;;;;;;;;;;;;;4901611;29;20376;-81
2021/11/20 03:28:58;;;;;;;;;;;;;;;;;;4901608;29;19919;-81
2021/11/20 03:31:24;;;;;;;;;;;;;;;;;;4900361;29;20368;-81
2021/11/20 03:33:49;;;;;;;;;;;;;;;;;;4901324;29;20360;-81
2021/11/20 03:36:15;;;;;;;;;;;;;;;;;;4900174;29;19988;-81
2021/11/20 03:38:41;;;;;;;;;;;;;;;;;;4901398;29;20312;-81
2021/11/20 03:41:07;;;;;;;;;;;;;;;;;;4902225;29;19949;-79
2021/11/20 03:43:32;;;;;;;;;;;;;;;;;;4901158;29;19926;-80
2021/11/20 03:45:58;;;;;;;;;;;;;;;;;;4902756;29;19954;-80
2021/11/20 03:48:23;;;;;;;;;;;;;;;;;;4901092;29;19919;-81
2021/11/20 03:50:49;;;;;;;;;;;;;;;;;;4902314;29;19916;-81
2021/11/20 03:53:15;;;;;;;;;;;;;;;;;;4902527;29;19926;-80
2021/11/20 03:55:43;;;;;;;;;;;;;;;;;;4900066;29;19920;-81
2021/11/20 03:58:09;;;;;;;;;;;;;;;;;;4899961;29;20002;-80
2021/11/20 04:00:36;;;;;;;;;;;;;;;;;;4899893;29;19951;-80
2021/11/20 04:03:02;;;;;;;;;;;;;;;;;;4900960;29;19919;-80
2021/11/20 04:05:32;;;;;;;;;;;;;;;;;;4900593;29;20026;-80
2021/11/20 04:07:58;;;;;;;;;;;;;;;;;;4901124;29;19930;-79
2021/11/20 04:10:23;;;;;;;;;;;;;;;;;;4900776;29;19923;-80
2021/11/20 04:12:49;;;;;;;;;;;;;;;;;;4900688;29;20307;-80
2021/11/20 04:15:16;;;;;;;;;;;;;;;;;;4900739;29;19967;-81
2021/11/20 04:17:42;;;;;;;;;;;;;;;;;;4900779;29;19920;-81
2021/11/20 04:20:11;;;;;;;;;;;;;;;;;;4900740;29;19919;-80
2021/11/20 04:22:37;;;;;;;;;;;;;;;;;;4900564;29;19924;-80
2021/11/20 04:25:03;;;;;;;;;;;;;;;;;;4900535;29;20290;-80
2021/11/20 04:27:29;;;;;;;;;;;;;;;;;;4900522;29;20363;-80
2021/11/20 04:29:54;;;;;;;;;;;;;;;;;;4900615;29;19924;-80
2021/11/20 04:32:20;;;;;;;;;;;;;;;;;;4899300;29;19920;-81
2021/11/20 04:34:45;;;;;;;;;;;;;;;;;;4900561;29;20304;-80
2021/11/20 04:37:11;;;;;;;;;;;;;;;;;;4900389;29;19943;-80
2021/11/20 04:39:36;;;;;;;;;;;;;;;;;;4900168;29;20028;-80
2021/11/20 04:42:02;;;;;;;;;;;;;;;;;;4900125;29;19920;-80
2021/11/20 04:44:27;;;;;;;;;;;;;;;;;;4900189;29;19974;-81
2021/11/20 04:46:53;;;;;;;;;;;;;;;;;;4900053;29;20015;-80
2021/11/20 04:49:18;;;;;;;;;;;;;;;;;;4900219;29;19923;-80
2021/11/20 04:51:44;;;;;;;;;;;;;;;;;;4900027;29;19923;-80
2021/11/20 04:54:10;;;;;;;;;;;;;;;;;;4900206;29;19923;-80
2021/11/20 04:56:35;;;;;;;;;;;;;;;;;;4900103;29;19923;-81
2021/11/20 04:59:01;;;;;;;;;;;;;;;;;;4899981;29;20265;-81
2021/11/20 05:01:27;;;;;;;;;;;;;;;;;;4899839;29;19923;-81
2021/11/20 05:03:53;;;;;;;;;;;;;;;;;;4899715;29;19968;-81
2021/11/20 05:06:19;;;;;;;;;;;;;;;;;;4899553;29;19930;-81
2021/11/20 05:08:45;;;;;;;;;;;;;;;;;;4899743;29;19926;-80
2021/11/20 05:11:11;;;;;;;;;;;;;;;;;;4899681;29;19919;-81
2021/11/20 05:13:37;;;;;;;;;;;;;;;;;;4899927;29;20304;-81
2021/11/20 05:16:03;;;;;;;;;;;;;;;;;;4899651;29;19975;-81
2021/11/20 05:18:29;;;;;;;;;;;;;;;;;;4899526;29;20405;-80
2021/11/20 05:20:55;;;;;;;;;;;;;;;;;;4899501;29;19963;-80
2021/11/20 05:23:22;;;;;;;;;;;;;;;;;;4899345;29;19990;-80
2021/11/20 05:25:47;;;;;;;;;;;;;;;;;;4898140;29;19924;-81
2021/11/20 05:28:13;;;;;;;;;;;;;;;;;;4899364;29;19926;-80
2021/11/20 05:30:39;;;;;;;;;;;;;;;;;;4896032;29;19923;-81
2021/11/20 05:33:07;;;;;;;;;;;;;;;;;;4887075;29;19923;-80
2021/11/20 05:35:33;;;;;;;;;;;;;;;;;;4889646;29;19926;-80
2021/11/20 05:37:59;;;;;;;;;;;;;;;;;;4881306;29;19923;-81
2021/11/20 05:40:25;;;;;;;;;;;;;;;;;;4880332;29;19916;-80
2021/11/20 05:42:52;;;;;;;;;;;;;;;;;;4878518;29;19920;-81
2021/11/20 05:45:19;;;;;;;;;;;;;;;;;;4879082;29;19927;-80
2021/11/20 05:47:45;;;;;;;;;;;;;;;;;;4879086;29;19951;-80
2021/11/20 05:50:11;;;;;;;;;;;;;;;;;;4880176;29;19966;-83
2021/11/20 05:52:36;;;;;;;;;;;;;;;;;;4880225;29;20372;-82
2021/11/20 05:55:02;;;;;;;;;;;;;;;;;;4878880;29;20029;-81
2021/11/20 05:57:28;;;;;;;;;;;;;;;;;;4887947;29;20010;-82
2021/11/20 05:59:53;;;;;;;;;;;;;;;;;;4897486;29;20058;-82
2021/11/20 06:02:19;;;;;;;;;;;;;;;;;;4898541;29;19967;-82
2021/11/20 06:04:44;;;;;;;;;;;;;;;;;;4898592;29;19928;-82
2021/11/20 06:07:11;;;;;;;;;;;;;;;;;;4898719;29;19923;-82
2021/11/20 06:09:40;;;;;;;;;;;;;;;;;;4898615;29;19923;-82
2021/11/20 06:12:06;;;;;;;;;;;;;;;;;;4912881;29;19927;-82
2021/11/20 06:14:32;;;;;;;;;;;;;;;;;;4898342;29;20307;-82
2021/11/20 06:16:57;;;;;;;;;;;;;;;;;;4898450;29;19929;-82
2021/11/20 06:19:23;;;;;;;;;;;;;;;;;;4898379;29;20360;-81
2021/11/20 06:21:48;;;;;;;;;;;;;;;;;;4897507;29;19924;-83
2021/11/20 06:24:15;;;;;;;;;;;;;;;;;;4897806;29;20056;-81
2021/11/20 06:26:40;;;;;;;;;;;;;;;;;;4880175;29;19946;-82
2021/11/20 06:29:06;;;;;;;;;;;;;;;;;;4891003;29;20372;-83
2021/11/20 06:31:31;;;;;;;;;;;;;;;;;;4883303;29;20005;-83
2021/11/20 06:33:58;;;;;;;;;;;;;;;;;;4886683;29;19967;-82
2021/11/20 06:36:24;;;;;;;;;;;;;;;;;;4888875;29;19924;-81
2021/11/20 06:38:50;;;;;;;;;;;;;;;;;;4887297;29;20360;-82
2021/11/20 06:41:15;;;;;;;;;;;;;;;;;;4892013;29;19924;-85
2021/11/20 06:43:41;;;;;;;;;;;;;;;;;;4887732;29;19931;-86
2021/11/20 06:46:08;;;;;;;;;;;;;;;;;;4893987;29;20459;-82
2021/11/20 06:48:34;;;;;;;;;;;;;;;;;;4897491;29;20018;-83
2021/11/20 06:51:00;;;;;;;;;;;;;;;;;;4895310;29;19999;-86
2021/11/20 06:53:27;;;;;;;;;;;;;;;;;;4888959;29;19928;-84
2021/11/20 06:55:52;;;;;;;;;;;;;;;;;;4899931;29;19927;-86
2021/11/20 07:01:05;;;;;;;;;;;;;;;;;;4895897;29;19927;-82
2021/11/20 07:03:34;;;;;;;;;;;;;;;;;;4897697;29;19932;-83
2021/11/20 07:06:02;;;;;;;;;;;;;;;;;;4898744;29;19931;-82
2021/11/20 07:08:28;;;;;;;;;;;;;;;;;;4894713;29;19927;-84
2021/11/20 07:10:54;;;;;;;;;;;;;;;;;;4898160;29;19974;-80
2021/11/20 07:13:21;;;;;;;;;;;;;;;;;;4900886;29;19934;-81
2021/11/20 07:15:47;;;;;;;;;;;;;;;;;;4895045;29;19934;-83
2021/11/20 07:18:12;;;;;;;;;;;;;;;;;;4895137;29;19919;-83
2021/11/20 07:20:39;;;;;;;;;;;;;;;;;;4896461;29;19930;-82
2021/11/20 07:23:05;;;;;;;;;;;;;;;;;;4895441;29;19930;-81
2021/11/20 07:25:31;;;;;;;;;;;;;;;;;;4895104;29;19923;-80
2021/11/20 07:27:57;;;;;;;;;;;;;;;;;;4899755;29;20030;-82
2021/11/20 07:30:24;;;;;;;;;;;;;;;;;;4898548;29;20065;-83
2021/11/20 07:32:51;;;;;;;;;;;;;;;;;;4898973;29;19946;-82
2021/11/20 07:35:26;;;;;;;;;;;;;;;;;;4898619;29;19924;-82
2021/11/20 07:37:51;;;;;;;;;;;;;;;;;;4900690;29;19978;-82
2021/11/20 07:40:17;;;;;;;;;;;;;;;;;;4899804;29;20408;-82
2021/11/20 07:42:42;;;;;;;;;;;;;;;;;;4901240;29;20410;-84
2021/11/20 07:45:08;;;;;;;;;;;;;;;;;;4901265;29;20390;-81
2021/11/20 07:47:33;;;;;;;;;;;;;;;;;;4901008;29;20295;-85
2021/11/20 07:49:59;;;;;;;;;;;;;;;;;;4900972;29;19919;-83
2021/11/20 07:52:24;;;;;;;;;;;;;;;;;;4901072;29;19921;-82
2021/11/20 07:54:50;;;;;;;;;;;;;;;;;;4900142;29;19923;-85
2021/11/20 07:57:16;;;;;;;;;;;;;;;;;;4900801;29;20440;-84
2021/11/20 07:59:41;;;;;;;;;;;;;;;;;;4900945;29;19923;-81
2021/11/20 08:02:07;;;;;;;;;;;;;;;;;;4900387;29;20292;-81
2021/11/20 08:04:35;;;;;;;;;;;;;;;;;;4900252;29;19931;-80
2021/11/20 08:07:02;;;;;;;;;;;;;;;;;;4900716;29;19920;-80
2021/11/20 08:09:27;;;;;;;;;;;;;;;;;;4898426;29;20022;-81
2021/11/20 08:11:52;;;;;;;;;;;;;;;;;;4900715;29;19924;-81
2021/11/20 08:14:20;;;;;;;;;;;;;;;;;;4900527;29;20407;-83
2021/11/20 08:16:46;;;;;;;;;;;;;;;;;;4898199;29;20672;-82
2021/11/20 08:19:11;;;;;;;;;;;;;;;;;;4899542;29;19928;-83
2021/11/20 08:21:37;;;;;;;;;;;;;;;;;;4899490;29;20021;-83
2021/11/20 08:24:05;;;;;;;;;;;;;;;;;;4900283;29;19920;-84
2021/11/20 08:26:35;;;;;;;;;;;;;;;;;;4900361;29;19923;-81
2021/11/20 08:29:02;;;;;;;;;;;;;;;;;;4900305;29;19927;-82
2021/11/20 08:31:28;;;;;;;;;;;;;;;;;;4899955;29;19926;-81
2021/11/20 08:33:54;;;;;;;;;;;;;;;;;;4900503;29;19920;-90
2021/11/20 08:36:19;;;;;;;;;;;;;;;;;;4898981;29;19923;-83
2021/11/20 08:38:44;;;;;;;;;;;;;;;;;;4895003;29;19928;-86
2021/11/20 08:41:10;;;;;;;;;;;;;;;;;;4892500;29;20755;-89
2021/11/20 08:43:35;;;;;;;;;;;;;;;;;;4895129;29;20599;-88
2021/11/20 08:46:02;;;;;;;;;;;;;;;;;;4893792;29;19932;-86
2021/11/20 08:48:28;;;;;;;;;;;;;;;;;;4892541;29;20010;-87
2021/11/20 08:50:55;;;;;;;;;;;;;;;;;;4893728;29;19979;-87
2021/11/20 08:53:21;;;;;;;;;;;;;;;;;;4895593;29;20411;-87
2021/11/20 08:55:46;;;;;;;;;;;;;;;;;;4898007;29;20118;-82
2021/11/20 08:58:12;;;;;;;;;;;;;;;;;;4899124;29;20377;-83
2021/11/20 09:00:37;;;;;;;;;;;;;;;;;;4897861;29;20265;-82
2021/11/20 09:03:07;;;;;;;;;;;;;;;;;;4899517;29;20018;-81
2021/11/20 09:05:32;;;;;;;;;;;;;;;;;;4879744;29;19970;-81
2021/11/20 09:08:03;;;;;;;;;;;;;;;;;;4895637;29;19959;-81
2021/11/20 09:10:29;;;;;;;;;;;;;;;;;;4898773;29;19930;-80
2021/11/20 09:13:00;;;;;;;;;;;;;;;;;;4899514;29;19920;-81
2021/11/20 09:15:46;;;;;;;;;;;;;;;;;;4899155;29;19967;-83
2021/11/20 09:18:11;;;;;;;;;;;;;;;;;;4898896;29;19959;-83
2021/11/20 09:20:37;;;;;;;;;;;;;;;;;;4895378;29;19993;-83
2021/11/20 09:23:03;;;;;;;;;;;;;;;;;;4892929;29;19923;-82
2021/11/20 09:25:29;;;;;;;;;;;;;;;;;;4896845;29;19923;-82
2021/11/20 09:27:54;;;;;;;;;;;;;;;;;;4882375;29;19963;-82
2021/11/20 09:30:23;;;;;;;;;;;;;;;;;;4882334;29;19923;-83
2021/11/20 09:32:48;;;;;;;;;;;;;;;;;;4899204;29;19990;-82
2021/11/20 09:35:14;;;;;;;;;;;;;;;;;;4899075;29;19931;-81
2021/11/20 09:37:40;;;;;;;;;;;;;;;;;;4899097;29;19923;-82
2021/11/20 09:40:07;;;;;;;;;;;;;;;;;;4897640;29;20018;-82
2021/11/20 09:42:36;;;;;;;;;;;;;;;;;;4897606;29;20436;-83
2021/11/20 09:45:06;;;;;;;;;;;;;;;;;;4894881;29;19994;-80
2021/11/20 09:47:42;;;;;;;;;;;;;;;;;;4897283;29;19926;-82
2021/11/20 09:50:13;;;;;;;;;;;;;;;;;;4895455;29;19984;-81
2021/11/20 09:52:40;;;;;;;;;;;;;;;;;;4896693;29;19966;-82
2021/11/20 09:55:07;;;;;;;;;;;;;;;;;;4895889;29;19923;-83
2021/11/20 09:57:37;;;;;;;;;;;;;;;;;;4895876;29;20415;-81
2021/11/20 10:00:05;;;;;;;;;;;;;;;;;;4891833;29;19931;-83
2021/11/20 10:02:40;;;;;;;;;;;;;;;;;;4892581;29;20021;-82
2021/11/20 10:05:08;;;;;;;;;;;;;;;;;;4893705;29;19927;-81
2021/11/20 10:07:38;;;;;;;;;;;;;;;;;;4897762;29;20202;-81
2021/11/20 10:10:24;;;;;;;;;;;;;;;;;;4897697;29;20014;-81
2021/11/20 10:13:07;;;;;;;;;;;;;;;;;;4897337;29;19924;-81
2021/11/20 10:15:34;;;;;;;;;;;;;;;;;;4895068;29;19927;-82
2021/11/20 10:18:12;;;;;;;;;;;;;;;;;;4893605;29;20018;-83
2021/11/20 10:20:41;;;;;;;;;;;;;;;;;;4894172;29;20064;-82
2021/11/20 10:23:09;;;;;;;;;;;;;;;;;;4897817;29;20372;-82
2021/11/20 10:25:56;;;;;;;;;;;;;;;;;;4898315;29;19983;-83
2021/11/20 10:28:40;;;;;;;;;;;;;;;;;;4898183;29;19923;-83
2021/11/20 10:31:05;;;;;;;;;;;;;;;;;;4898277;29;20031;-81
2021/11/20 10:33:36;;;;;;;;;;;;;;;;;;4897431;29;20002;-83
2021/11/20 10:36:17;;;;;;;;;;;;;;;;;;4895246;29;19923;-83
2021/11/20 10:38:45;;;;;;;;;;;;;;;;;;4895640;29;20427;-82
2021/11/20 10:41:21;;;;;;;;;;;;;;;;;;4897793;29;20384;-82
2021/11/20 10:43:51;;;;;;;;;;;;;;;;;;4897992;29;19924;-82
2021/11/20 10:46:28;;;;;;;;;;;;;;;;;;4898376;29;19946;-83
2021/11/20 10:49:15;;;;;;;;;;;;;;;;;;4880321;29;19979;-82
2021/11/20 10:51:43;;;;;;;;;;;;;;;;;;4897948;29;19923;-81
2021/11/20 10:54:35;;;;;;;;;;;;;;;;;;4897376;29;20369;-82
2021/11/20 10:57:16;;;;;;;;;;;;;;;;;;4867852;29;19920;-81
2021/11/20 11:00:07;;;;;;;;;;;;;;;;;;4897965;29;19923;-83
2021/11/20 11:02:40;;;;;;;;;;;;;;;;;;4880825;29;20403;-80
2021/11/20 11:05:17;;;;;;;;;;;;;;;;;;4897733;29;19923;-81
2021/11/20 11:08:12;;;;;;;;;;;;;;;;;;4898174;29;20333;-81
2021/11/20 11:10:43;;;;;;;;;;;;;;;;;;4881504;29;19923;-81
2021/11/20 11:13:14;;;;;;;;;;;;;;;;;;4901023;29;20055;-80
2021/11/20 11:15:56;;;;;;;;;;;;;;;;;;4897760;29;19926;-79
2021/11/20 11:18:24;;;;;;;;;;;;;;;;;;4900857;29;20034;-79
2021/11/20 11:21:09;;;;;;;;;;;;;;;;;;4900521;29;19920;-80
2021/11/20 11:23:53;;;;;;;;;;;;;;;;;;4905229;29;19920;-81
2021/11/20 11:26:19;;;;;;;;;;;;;;;;;;4911421;29;19923;-82
2021/11/20 11:28:55;;;;;;;;;;;;;;;;;;4881135;29;20010;-84
2021/11/20 11:31:42;;;;;;;;;;;;;;;;;;4898486;29;19920;-86
2021/11/20 11:34:26;;;;;;;;;;;;;;;;;;4897672;29;20009;-83
2021/11/20 11:37:15;;;;;;;;;;;;;;;;;;4897821;29;20428;-84
2021/11/20 11:39:40;;;;;;;;;;;;;;;;;;4891109;29;19967;-86
2021/11/20 11:42:06;;;;;;;;;;;;;;;;;;4900706;29;20299;-84
2021/11/20 11:44:36;;;;;;;;;;;;;;;;;;4901198;29;19920;-85
2021/11/20 11:47:23;;;;;;;;;;;;;;;;;;4901257;29;19919;-83
2021/11/20 11:49:58;;;;;;;;;;;;;;;;;;5055695;23;20196;-85
2021/11/20 11:52:39;;;;;;;;;;;;;;;;;;4880270;29;19932;-83
2021/11/20 11:55:15;;;;;;;;;;;;;;;;;;4882293;29;19931;-84
2021/11/20 11:57:49;;;;;;;;;;;;;;;;;;4865535;29;20364;-84
2021/11/20 12:00:17;;;;;;;;;;;;;;;;;;4880893;29;19930;-85
2021/11/20 12:02:51;;;;;;;;;;;;;;;;;;4881751;29;20067;-85
2021/11/20 12:05:29;;;;;;;;;;;;;;;;;;4865250;29;19924;-85
2021/11/20 12:07:58;;;;;;;;;;;;;;;;;;4882148;29;19926;-83
2021/11/20 12:10:24;;;;;;;;;;;;;;;;;;4879128;29;20344;-83
2021/11/20 12:12:56;;;;;;;;;;;;;;;;;;4878067;29;19999;-83
2021/11/20 12:15:30;;;;;;;;;;;;;;;;;;4876864;29;19924;-82
2021/11/20 12:18:09;;;;;;;;;;;;;;;;;;4876903;29;19928;-84
2021/11/20 12:20:52;;;;;;;;;;;;;;;;;;4876044;29;19923;-81
2021/11/20 12:23:36;;;;;;;;;;;;;;;;;;4877817;29;19927;-83
2021/11/20 12:26:19;;;;;;;;;;;;;;;;;;4879097;29;19974;-83
2021/11/20 12:28:48;;;;;;;;;;;;;;;;;;4877900;29;19927;-84
2021/11/20 12:31:32;;;;;;;;;;;;;;;;;;4876562;29;19988;-83
2021/11/20 12:34:04;;;;;;;;;;;;;;;;;;4878666;29;19924;-83
2021/11/20 12:36:34;;;;;;;;;;;;;;;;;;4875702;29;19928;-82
2021/11/20 12:39:02;;;;;;;;;;;;;;;;;;4871651;29;19942;-82
2021/11/20 12:41:47;;;;;;;;;;;;;;;;;;4870887;29;20369;-83
2021/11/20 12:44:20;;;;;;;;;;;;;;;;;;4872500;29;20383;-83
2021/11/20 12:47:04;;;;;;;;;;;;;;;;;;4855415;29;19920;-83
2021/11/20 12:49:36;;;;;;;;;;;;;;;;;;4872495;29;20026;-81
2021/11/20 12:52:17;;;;;;;;;;;;;;;;;;4870357;29;19924;-82
2021/11/20 12:54:45;;;;;;;;;;;;;;;;;;4862922;29;19926;-82
2021/11/20 12:57:11;;;;;;;;;;;;;;;;;;4862637;29;20007;-82
2021/11/20 12:59:41;;;;;;;;;;;;;;;;;;4862919;29;19967;-83
2021/11/20 13:02:08;;;;;;;;;;;;;;;;;;4862106;29;19923;-81
2021/11/20 13:04:39;;;;;;;;;;;;;;;;;;4870727;29;19931;-81
2021/11/20 13:07:08;;;;;;;;;;;;;;;;;;4876030;29;20013;-82
2021/11/20 13:09:36;;;;;;;;;;;;;;;;;;4875092;29;20072;-82
2021/11/20 13:12:05;;;;;;;;;;;;;;;;;;4876065;29;19971;-82
2021/11/20 13:14:52;;;;;;;;;;;;;;;;;;4876482;29;19928;-81
2021/11/20 13:17:22;;;;;;;;;;;;;;;;;;4875844;29;20422;-82
2021/11/20 13:19:53;;;;;;;;;;;;;;;;;;4874694;29;19934;-82
2021/11/20 13:22:20;;;;;;;;;;;;;;;;;;4878640;29;19930;-81
2021/11/20 13:24:55;;;;;;;;;;;;;;;;;;4876680;29;19923;-82
2021/11/20 13:27:39;;;;;;;;;;;;;;;;;;4876956;29;19928;-83
2021/11/20 13:30:08;;;;;;;;;;;;;;;;;;4876977;29;20008;-81
2021/11/20 13:32:34;;;;;;;;;;;;;;;;;;4876169;29;20292;-84
2021/11/20 13:35:00;;;;;;;;;;;;;;;;;;4875712;29;19924;-82
2021/11/20 13:37:25;;;;;;;;;;;;;;;;;;4875561;29;20366;-82
2021/11/20 13:39:52;;;;;;;;;;;;;;;;;;4881244;29;19939;-82
2021/11/20 13:42:18;;;;;;;;;;;;;;;;;;4895468;29;19923;-81
2021/11/20 13:44:43;;;;;;;;;;;;;;;;;;4882157;29;20022;-82
2021/11/20 13:47:09;;;;;;;;;;;;;;;;;;4897289;29;19919;-83
2021/11/20 13:49:35;;;;;;;;;;;;;;;;;;4876135;29;19924;-83
2021/11/20 13:52:08;;;;;;;;;;;;;;;;;;4878547;29;19935;-82
2021/11/20 13:54:34;;;;;;;;;;;;;;;;;;4890734;29;19927;-82
2021/11/20 13:57:00;;;;;;;;;;;;;;;;;;4888288;29;19923;-82
2021/11/20 13:59:26;;;;;;;;;;;;;;;;;;4878713;29;19924;-82
2021/11/20 14:01:52;;;;;;;;;;;;;;;;;;4877746;29;19979;-83
2021/11/20 14:04:19;;;;;;;;;;;;;;;;;;4874349;29;19935;-86
2021/11/20 14:06:44;;;;;;;;;;;;;;;;;;4873899;29;19927;-81
2021/11/20 14:09:15;;;;;;;;;;;;;;;;;;4874180;29;20094;-79
2021/11/20 14:11:50;;;;;;;;;;;;;;;;;;4875271;29;20376;-80
2021/11/20 14:14:22;;;;;;;;;;;;;;;;;;4874219;29;19946;-79
2021/11/20 14:16:48;;;;;;;;;;;;;;;;;;4873488;29;20841;-84
2021/11/20 14:19:24;;;;;;;;;;;;;;;;;;4877979;29;19991;-82
2021/11/20 14:21:56;;;;;;;;;;;;;;;;;;4865511;29;19928;-83
2021/11/20 14:24:26;;;;;;;;;;;;;;;;;;4874361;29;19931;-82
2021/11/20 14:26:57;;;;;;;;;;;;;;;;;;4895146;29;20036;-84
2021/11/20 14:29:28;;;;;;;;;;;;;;;;;;4881365;29;19991;-85
2021/11/20 14:31:54;;;;;;;;;;;;;;;;;;4898538;29;20311;-82
2021/11/20 14:34:27;;;;;;;;;;;;;;;;;;4897324;29;19928;-78
2021/11/20 14:36:53;;;;;;;;;;;;;;;;;;4898262;29;20299;-85
2021/11/20 14:39:29;;;;;;;;;;;;;;;;;;4898138;29;20436;-78
2021/11/20 14:41:56;;;;;;;;;;;;;;;;;;4898132;29;19923;-79
2021/11/20 14:44:23;;;;;;;;;;;;;;;;;;4897732;29;20391;-78
2021/11/20 14:46:59;;;;;;;;;;;;;;;;;;4892637;29;19928;-80
2021/11/20 14:49:24;;;;;;;;;;;;;;;;;;4874089;29;20013;-82
2021/11/20 14:51:59;;;;;;;;;;;;;;;;;;4857076;29;19928;-85
2021/11/20 14:54:28;;;;;;;;;;;;;;;;;;4873920;29;19924;-85
2021/11/20 14:57:02;;;;;;;;;;;;;;;;;;4875115;29;20007;-86
2021/11/20 14:59:38;;;;;;;;;;;;;;;;;;4880434;29;20308;-83
2021/11/20 15:02:04;;;;;;;;;;;;;;;;;;4860490;29;19968;-82
2021/11/20 15:04:30;;;;;;;;;;;;;;;;;;4858420;29;19924;-79
2021/11/20 15:06:55;;;;;;;;;;;;;;;;;;4879127;29;19920;-89
2021/11/20 15:09:21;;;;;;;;;;;;;;;;;;4879276;29;19924;-85
2021/11/20 15:11:46;;;;;;;;;;;;;;;;;;4875351;29;19920;-79
2021/11/20 15:14:12;;;;;;;;;;;;;;;;;;4860777;29;19928;-80
2021/11/20 15:16:37;;;;;;;;;;;;;;;;;;4864395;29;20285;-79
2021/11/20 15:19:03;;;;;;;;;;;;;;;;;;4882454;29;19988;-86
2021/11/20 15:21:28;;;;;;;;;;;;;;;;;;4881626;29;19984;-86
2021/11/20 15:23:54;;;;;;;;;;;;;;;;;;4881602;29;19920;-84
2021/11/20 15:26:19;;;;;;;;;;;;;;;;;;4880594;29;19924;-86
2021/11/20 15:28:45;;;;;;;;;;;;;;;;;;4881760;29;19928;-85
2021/11/20 15:31:11;;;;;;;;;;;;;;;;;;4882218;29;20296;-82
2021/11/20 15:33:37;;;;;;;;;;;;;;;;;;4881320;29;19967;-82
2021/11/20 15:36:03;;;;;;;;;;;;;;;;;;4881785;29;19920;-84
2021/11/20 15:38:28;;;;;;;;;;;;;;;;;;4864793;29;19965;-81
2021/11/20 15:40:54;;;;;;;;;;;;;;;;;;4881881;29;20600;-82
2021/11/20 15:43:20;;;;;;;;;;;;;;;;;;4876860;29;19927;-86
2021/11/20 15:45:45;;;;;;;;;;;;;;;;;;4901411;29;19943;-85
2021/11/20 15:48:11;;;;;;;;;;;;;;;;;;4900546;29;20296;-84
2021/11/20 15:50:36;;;;;;;;;;;;;;;;;;4900558;29;20002;-84
2021/11/20 15:53:02;;;;;;;;;;;;;;;;;;4899717;29;19919;-84
2021/11/20 15:55:27;;;;;;;;;;;;;;;;;;4900703;29;19926;-82
2021/11/20 15:57:53;;;;;;;;;;;;;;;;;;4886091;29;20392;-81
2021/11/20 16:00:21;;;;;;;;;;;;;;;;;;4881852;29;19970;-82
2021/11/20 16:02:48;;;;;;;;;;;;;;;;;;4898935;29;19927;-79
2021/11/20 16:05:15;;;;;;;;;;;;;;;;;;4900819;29;19968;-80
2021/11/20 16:07:41;;;;;;;;;;;;;;;;;;4900330;29;19919;-81
2021/11/20 16:10:06;;;;;;;;;;;;;;;;;;4900156;29;19931;-82
2021/11/20 16:12:32;;;;;;;;;;;;;;;;;;4883853;29;20300;-78
2021/11/20 16:14:57;;;;;;;;;;;;;;;;;;4900724;29;20358;-78
2021/11/20 16:17:23;;;;;;;;;;;;;;;;;;4899999;29;20357;-77
2021/11/20 16:19:48;;;;;;;;;;;;;;;;;;4900160;29;19923;-80
2021/11/20 16:22:14;;;;;;;;;;;;;;;;;;4900131;29;19920;-80
2021/11/20 16:24:42;;;;;;;;;;;;;;;;;;4900501;29;20348;-79
2021/11/20 16:27:09;;;;;;;;;;;;;;;;;;4899802;29;19982;-83
2021/11/20 16:29:35;;;;;;;;;;;;;;;;;;4899704;29;19919;-80
2021/11/20 16:32:01;;;;;;;;;;;;;;;;;;4883473;29;19923;-83
2021/11/20 16:34:27;;;;;;;;;;;;;;;;;;4900241;29;19998;-84
2021/11/20 16:36:53;;;;;;;;;;;;;;;;;;4882624;29;19923;-80
2021/11/20 16:39:18;;;;;;;;;;;;;;;;;;4895040;29;19928;-80
2021/11/20 16:41:45;;;;;;;;;;;;;;;;;;4879012;29;19992;-78
2021/11/20 16:44:12;;;;;;;;;;;;;;;;;;4879130;29;19928;-76
2021/11/20 16:46:38;;;;;;;;;;;;;;;;;;4877050;29;19924;-78
2021/11/20 16:49:04;;;;;;;;;;;;;;;;;;4879496;29;19924;-81
2021/11/20 16:54:01;;;;;;;;;;;;;;;;;;4879492;29;19931;-78
2021/11/20 16:56:27;;;;;;;;;;;;;;;;;;4879412;29;19920;-77
2021/11/20 16:58:52;;;;;;;;;;;;;;;;;;4879474;29;20618;-77
2021/11/20 17:01:18;;;;;;;;;;;;;;;;;;4879382;29;19927;-76